sensor_id;sensor_type;location;lat;lon;timestamp;temperature;humidity
5059;DHT22;2548;52.050;11.036;2023-12-22T00:01:29;5.00;99.90
5059;DHT22;2548;52.050;11.036;2023-12-22T00:03:56;5.00;99.90
5059;DHT22;2548;52.050;11.036;2023-12-22T00:06:24;4.80;99.90
5059;DHT22;2548;52.050;11.036;2023-12-22T00:08:51;4.60;99.90
5059;DHT22;2548;52.050;11.036;2023-12-22T00:11:19;4.50;99.90
5059;DHT22;2548;52.050;11.036;2023-12-22T00:13:49;4.40;99.90
5059;DHT22;2548;52.050;11.036;2023-12-22T00:16:23;4.40;99.90
5059;DHT22;2548;52.050;11.036;2023-12-22T00:18:51;4.40;99.90
5059;DHT22;2548;52.050;11.036;2023-12-22T00:21:22;4.40;99.90
5059;DHT22;2548;52.050;11.036;2023-12-22T00:23:53;4.40;99.90
5059;DHT22;2548;52.050;11.036;2023-12-22T00:26:24;4.30;99.90
5059;DHT22;2548;52.050;11.036;2023-12-22T00:28:54;4.30;99.90
5059;DHT22;2548;52.050;11.036;2023-12-22T00:31:31;4.30;99.90
5059;DHT22;2548;52.050;11.036;2023-12-22T00:34:00;4.40;99.90
5059;DHT22;2548;52.050;11.036;2023-12-22T00:36:28;4.40;99.90
5059;DHT22;2548;52.050;11.036;2023-12-22T00:38:55;4.40;99.90
5059;DHT22;2548;52.050;11.036;2023-12-22T00:41:23;4.40;99.90
5059;DHT22;2548;52.050;11.036;2023-12-22T00:43:50;4.40;99.90
5059;DHT22;2548;52.050;11.036;2023-12-22T00:46:18;4.40;99.90
5059;DHT22;2548;52.050;11.036;2023-12-22T00:48:46;4.50;99.90
5059;DHT22;2548;52.050;11.036;2023-12-22T00:51:21;4.50;99.90
5059;DHT22;2548;52.050;11.036;2023-12-22T00:53:51;4.50;99.90
5059;DHT22;2548;52.050;11.036;2023-12-22T00:56:18;4.50;99.90
5059;DHT22;2548;52.050;11.036;2023-12-22T00:58:52;4.60;99.90
5059;DHT22;2548;52.050;11.036;2023-12-22T01:01:25;4.60;99.90
5059;DHT22;2548;52.050;11.036;2023-12-22T01:03:53;4.70;99.90
5059;DHT22;2548;52.050;11.036;2023-12-22T01:06:24;4.70;99.90
5059;DHT22;2548;52.050;11.036;2023-12-22T01:08:52;4.70;99.90
5059;DHT22;2548;52.050;11.036;2023-12-22T01:11:19;4.80;99.90
5059;DHT22;2548;52.050;11.036;2023-12-22T01:13:47;4.80;99.90
5059;DHT22;2548;52.050;11.036;2023-12-22T01:16:14;4.80;99.90
5059;DHT22;2548;52.050;11.036;2023-12-22T01:18:53;4.80;99.90
5059;DHT22;2548;52.050;11.036;2023-12-22T01:21:24;4.80;99.90
5059;DHT22;2548;52.050;11.036;2023-12-22T01:23:58;4.90;99.90
5059;DHT22;2548;52.050;11.036;2023-12-22T01:26:28;4.90;99.90
5059;DHT22;2548;52.050;11.036;2023-12-22T01:28:59;4.90;99.90
5059;DHT22;2548;52.050;11.036;2023-12-22T01:31:30;4.90;99.90
5059;DHT22;2548;52.050;11.036;2023-12-22T01:36:51;4.90;99.90
5059;DHT22;2548;52.050;11.036;2023-12-22T01:39:21;4.90;99.90
5059;DHT22;2548;52.050;11.036;2023-12-22T01:41:49;4.80;99.90
5059;DHT22;2548;52.050;11.036;2023-12-22T01:44:22;4.80;99.90
5059;DHT22;2548;52.050;11.036;2023-12-22T01:46:53;4.80;99.90
5059;DHT22;2548;52.050;11.036;2023-12-22T01:49:21;4.80;99.90
5059;DHT22;2548;52.050;11.036;2023-12-22T01:51:51;4.80;99.90
5059;DHT22;2548;52.050;11.036;2023-12-22T01:54:25;4.80;99.90
5059;DHT22;2548;52.050;11.036;2023-12-22T01:56:58;4.80;99.90
5059;DHT22;2548;52.050;11.036;2023-12-22T01:59:29;4.90;99.90
5059;DHT22;2548;52.050;11.036;2023-12-22T02:02:08;4.90;99.90
5059;DHT22;2548;52.050;11.036;2023-12-22T02:04:36;4.80;99.90
5059;DHT22;2548;52.050;11.036;2023-12-22T02:07:06;4.80;99.90
5059;DHT22;2548;52.050;11.036;2023-12-22T02:09:37;4.80;99.90
5059;DHT22;2548;52.050;11.036;2023-12-22T02:12:05;4.80;99.90
5059;DHT22;2548;52.050;11.036;2023-12-22T02:14:33;4.80;99.90
5059;DHT22;2548;52.050;11.036;2023-12-22T02:17:09;4.80;99.90
5059;DHT22;2548;52.050;11.036;2023-12-22T02:19:43;4.80;99.90
5059;DHT22;2548;52.050;11.036;2023-12-22T02:22:19;4.90;99.90
5059;DHT22;2548;52.050;11.036;2023-12-22T02:24:48;4.90;99.90
5059;DHT22;2548;52.050;11.036;2023-12-22T02:27:23;4.80;99.90
5059;DHT22;2548;52.050;11.036;2023-12-22T02:29:58;4.80;99.90
5059;DHT22;2548;52.050;11.036;2023-12-22T02:32:32;4.80;99.90
5059;DHT22;2548;52.050;11.036;2023-12-22T02:35:05;4.80;99.90
5059;DHT22;2548;52.050;11.036;2023-12-22T02:37:35;4.70;99.90
5059;DHT22;2548;52.050;11.036;2023-12-22T02:40:05;4.70;99.90
5059;DHT22;2548;52.050;11.036;2023-12-22T02:42:38;4.70;99.90
5059;DHT22;2548;52.050;11.036;2023-12-22T02:45:17;4.60;99.90
5059;DHT22;2548;52.050;11.036;2023-12-22T02:47:46;4.60;99.90
5059;DHT22;2548;52.050;11.036;2023-12-22T02:50:17;4.50;99.90
5059;DHT22;2548;52.050;11.036;2023-12-22T02:52:44;4.50;99.90
5059;DHT22;2548;52.050;11.036;2023-12-22T02:55:19;4.50;99.90
5059;DHT22;2548;52.050;11.036;2023-12-22T02:57:52;4.50;99.90
5059;DHT22;2548;52.050;11.036;2023-12-22T03:00:23;4.50;99.90
5059;DHT22;2548;52.050;11.036;2023-12-22T03:02:50;4.40;99.90
5059;DHT22;2548;52.050;11.036;2023-12-22T03:05:18;4.40;99.90
5059;DHT22;2548;52.050;11.036;2023-12-22T03:07:51;4.40;99.90
5059;DHT22;2548;52.050;11.036;2023-12-22T03:10:19;4.30;99.90
5059;DHT22;2548;52.050;11.036;2023-12-22T03:12:47;4.30;99.90
5059;DHT22;2548;52.050;11.036;2023-12-22T03:15:14;4.20;99.90
5059;DHT22;2548;52.050;11.036;2023-12-22T03:17:44;4.30;99.90
5059;DHT22;2548;52.050;11.036;2023-12-22T03:20:12;4.30;99.90
5059;DHT22;2548;52.050;11.036;2023-12-22T03:22:51;4.30;99.90
5059;DHT22;2548;52.050;11.036;2023-12-22T03:25:20;4.40;99.90
5059;DHT22;2548;52.050;11.036;2023-12-22T03:27:47;4.50;99.90
5059;DHT22;2548;52.050;11.036;2023-12-22T03:30:15;4.50;99.90
5059;DHT22;2548;52.050;11.036;2023-12-22T03:32:45;4.50;99.90
5059;DHT22;2548;52.050;11.036;2023-12-22T03:35:16;4.50;99.90
5059;DHT22;2548;52.050;11.036;2023-12-22T03:37:43;4.60;99.90
5059;DHT22;2548;52.050;11.036;2023-12-22T03:40:13;4.60;99.90
5059;DHT22;2548;52.050;11.036;2023-12-22T03:42:42;4.60;99.90
5059;DHT22;2548;52.050;11.036;2023-12-22T03:45:22;4.50;99.90
5059;DHT22;2548;52.050;11.036;2023-12-22T03:47:50;4.50;99.90
5059;DHT22;2548;52.050;11.036;2023-12-22T03:50:17;4.30;99.90
5059;DHT22;2548;52.050;11.036;2023-12-22T03:52:45;4.20;99.90
5059;DHT22;2548;52.050;11.036;2023-12-22T03:55:15;4.10;99.90
5059;DHT22;2548;52.050;11.036;2023-12-22T03:58:06;4.00;99.90
5059;DHT22;2548;52.050;11.036;2023-12-22T04:00:34;3.90;99.90
5059;DHT22;2548;52.050;11.036;2023-12-22T04:03:07;3.80;99.90
5059;DHT22;2548;52.050;11.036;2023-12-22T04:05:37;3.80;99.90
5059;DHT22;2548;52.050;11.036;2023-12-22T04:08:07;3.80;99.90
5059;DHT22;2548;52.050;11.036;2023-12-22T04:10:38;3.90;99.90
5059;DHT22;2548;52.050;11.036;2023-12-22T04:13:17;3.90;99.90
5059;DHT22;2548;52.050;11.036;2023-12-22T04:15:47;4.00;99.90
5059;DHT22;2548;52.050;11.036;2023-12-22T04:18:17;4.10;99.90
5059;DHT22;2548;52.050;11.036;2023-12-22T04:20:47;4.20;99.90
5059;DHT22;2548;52.050;11.036;2023-12-22T04:23:28;4.20;99.90
5059;DHT22;2548;52.050;11.036;2023-12-22T04:25:55;4.10;99.90
5059;DHT22;2548;52.050;11.036;2023-12-22T04:28:27;4.10;99.90
5059;DHT22;2548;52.050;11.036;2023-12-22T04:30:54;4.10;99.90
5059;DHT22;2548;52.050;11.036;2023-12-22T04:33:24;4.00;99.90
5059;DHT22;2548;52.050;11.036;2023-12-22T04:35:51;4.00;99.90
5059;DHT22;2548;52.050;11.036;2023-12-22T04:38:19;4.00;99.90
5059;DHT22;2548;52.050;11.036;2023-12-22T04:40:46;4.00;99.90
5059;DHT22;2548;52.050;11.036;2023-12-22T04:43:16;4.00;99.90
5059;DHT22;2548;52.050;11.036;2023-12-22T04:45:51;4.00;99.90
5059;DHT22;2548;52.050;11.036;2023-12-22T04:48:34;4.00;99.90
5059;DHT22;2548;52.050;11.036;2023-12-22T04:51:10;4.10;99.90
5059;DHT22;2548;52.050;11.036;2023-12-22T04:53:37;4.20;99.90
5059;DHT22;2548;52.050;11.036;2023-12-22T04:56:06;4.30;99.90
5059;DHT22;2548;52.050;11.036;2023-12-22T04:58:33;4.30;99.90
5059;DHT22;2548;52.050;11.036;2023-12-22T05:01:02;4.40;99.90
5059;DHT22;2548;52.050;11.036;2023-12-22T05:03:30;4.40;99.90
5059;DHT22;2548;52.050;11.036;2023-12-22T05:05:58;4.40;99.90
5059;DHT22;2548;52.050;11.036;2023-12-22T05:08:31;4.40;99.90
5059;DHT22;2548;52.050;11.036;2023-12-22T05:11:11;4.40;99.90
5059;DHT22;2548;52.050;11.036;2023-12-22T05:13:38;4.40;99.90
5059;DHT22;2548;52.050;11.036;2023-12-22T05:16:07;4.40;99.90
5059;DHT22;2548;52.050;11.036;2023-12-22T05:18:35;4.40;99.90
5059;DHT22;2548;52.050;11.036;2023-12-22T05:21:06;4.30;99.90
5059;DHT22;2548;52.050;11.036;2023-12-22T05:23:33;4.20;99.90
5059;DHT22;2548;52.050;11.036;2023-12-22T05:26:03;4.10;99.90
5059;DHT22;2548;52.050;11.036;2023-12-22T05:28:37;4.10;99.90
5059;DHT22;2548;52.050;11.036;2023-12-22T05:31:04;4.10;99.90
5059;DHT22;2548;52.050;11.036;2023-12-22T05:33:48;4.10;99.90
5059;DHT22;2548;52.050;11.036;2023-12-22T05:36:24;4.00;99.90
5059;DHT22;2548;52.050;11.036;2023-12-22T05:38:52;3.90;99.90
5059;DHT22;2548;52.050;11.036;2023-12-22T05:41:22;3.90;99.90
5059;DHT22;2548;52.050;11.036;2023-12-22T05:43:50;3.80;99.90
5059;DHT22;2548;52.050;11.036;2023-12-22T05:46:21;3.80;99.90
5059;DHT22;2548;52.050;11.036;2023-12-22T05:48:55;3.70;99.90
5059;DHT22;2548;52.050;11.036;2023-12-22T05:51:36;3.70;99.90
5059;DHT22;2548;52.050;11.036;2023-12-22T05:54:05;3.80;99.90
5059;DHT22;2548;52.050;11.036;2023-12-22T05:56:32;3.80;99.90
5059;DHT22;2548;52.050;11.036;2023-12-22T05:59:03;3.80;99.90
5059;DHT22;2548;52.050;11.036;2023-12-22T06:01:30;3.70;99.90
5059;DHT22;2548;52.050;11.036;2023-12-22T06:03:59;3.70;99.90
5059;DHT22;2548;52.050;11.036;2023-12-22T06:06:27;3.70;99.90
5059;DHT22;2548;52.050;11.036;2023-12-22T06:08:56;3.60;99.90
5059;DHT22;2548;52.050;11.036;2023-12-22T06:11:23;3.70;99.90
5059;DHT22;2548;52.050;11.036;2023-12-22T06:13:50;3.60;99.90
5059;DHT22;2548;52.050;11.036;2023-12-22T06:16:18;3.70;99.90
5059;DHT22;2548;52.050;11.036;2023-12-22T06:18:45;3.60;99.90
5059;DHT22;2548;52.050;11.036;2023-12-22T06:21:17;3.70;99.90
5059;DHT22;2548;52.050;11.036;2023-12-22T06:23:44;3.70;99.90
5059;DHT22;2548;52.050;11.036;2023-12-22T06:26:15;3.70;99.90
5059;DHT22;2548;52.050;11.036;2023-12-22T06:28:42;3.70;99.90
5059;DHT22;2548;52.050;11.036;2023-12-22T06:31:17;3.70;99.90
5059;DHT22;2548;52.050;11.036;2023-12-22T06:33:49;3.80;99.90
5059;DHT22;2548;52.050;11.036;2023-12-22T06:36:22;3.80;99.90
5059;DHT22;2548;52.050;11.036;2023-12-22T06:38:50;3.80;99.90
5059;DHT22;2548;52.050;11.036;2023-12-22T06:41:21;3.80;99.90
5059;DHT22;2548;52.050;11.036;2023-12-22T06:43:53;3.80;99.90
5059;DHT22;2548;52.050;11.036;2023-12-22T06:46:22;3.80;99.90
5059;DHT22;2548;52.050;11.036;2023-12-22T06:48:52;3.80;99.90
5059;DHT22;2548;52.050;11.036;2023-12-22T06:51:22;3.90;99.90
5059;DHT22;2548;52.050;11.036;2023-12-22T06:53:50;4.00;99.90
5059;DHT22;2548;52.050;11.036;2023-12-22T06:56:18;4.10;99.90
5059;DHT22;2548;52.050;11.036;2023-12-22T06:58:46;4.20;99.90
5059;DHT22;2548;52.050;11.036;2023-12-22T07:01:27;4.30;99.90
5059;DHT22;2548;52.050;11.036;2023-12-22T07:04:04;4.40;99.90
5059;DHT22;2548;52.050;11.036;2023-12-22T07:06:34;4.40;99.90
5059;DHT22;2548;52.050;11.036;2023-12-22T07:09:27;4.30;99.90
5059;DHT22;2548;52.050;11.036;2023-12-22T07:11:55;4.30;99.90
5059;DHT22;2548;52.050;11.036;2023-12-22T07:14:23;4.30;99.90
5059;DHT22;2548;52.050;11.036;2023-12-22T07:16:50;4.20;99.90
5059;DHT22;2548;52.050;11.036;2023-12-22T07:19:23;4.10;99.90
5059;DHT22;2548;52.050;11.036;2023-12-22T07:21:51;4.10;99.90
5059;DHT22;2548;52.050;11.036;2023-12-22T07:24:22;4.00;99.90
5059;DHT22;2548;52.050;11.036;2023-12-22T07:27:01;3.90;99.90
5059;DHT22;2548;52.050;11.036;2023-12-22T07:29:28;3.80;99.90
5059;DHT22;2548;52.050;11.036;2023-12-22T07:31:59;3.70;99.90
5059;DHT22;2548;52.050;11.036;2023-12-22T07:34:29;3.60;99.90
5059;DHT22;2548;52.050;11.036;2023-12-22T07:36:58;3.60;99.90
5059;DHT22;2548;52.050;11.036;2023-12-22T07:39:26;3.60;99.90
5059;DHT22;2548;52.050;11.036;2023-12-22T07:41:53;3.70;99.90
5059;DHT22;2548;52.050;11.036;2023-12-22T07:44:23;3.80;99.90
5059;DHT22;2548;52.050;11.036;2023-12-22T07:46:57;3.70;99.90
5059;DHT22;2548;52.050;11.036;2023-12-22T07:49:26;3.80;99.90
5059;DHT22;2548;52.050;11.036;2023-12-22T07:51:54;3.80;99.90
5059;DHT22;2548;52.050;11.036;2023-12-22T07:54:23;3.80;99.90
5059;DHT22;2548;52.050;11.036;2023-12-22T07:56:51;3.80;99.90
5059;DHT22;2548;52.050;11.036;2023-12-22T07:59:22;3.80;99.90
5059;DHT22;2548;52.050;11.036;2023-12-22T08:01:49;3.80;99.90
5059;DHT22;2548;52.050;11.036;2023-12-22T08:04:18;3.90;99.90
5059;DHT22;2548;52.050;11.036;2023-12-22T08:06:46;3.90;99.90
5059;DHT22;2548;52.050;11.036;2023-12-22T08:09:16;3.90;99.90
5059;DHT22;2548;52.050;11.036;2023-12-22T08:11:48;4.00;99.90
5059;DHT22;2548;52.050;11.036;2023-12-22T08:14:18;4.00;99.90
5059;DHT22;2548;52.050;11.036;2023-12-22T08:16:46;4.00;99.90
5059;DHT22;2548;52.050;11.036;2023-12-22T08:19:19;4.00;99.90
5059;DHT22;2548;52.050;11.036;2023-12-22T08:21:46;4.00;99.90
5059;DHT22;2548;52.050;11.036;2023-12-22T08:24:20;4.00;99.90
5059;DHT22;2548;52.050;11.036;2023-12-22T08:26:49;3.90;99.90
5059;DHT22;2548;52.050;11.036;2023-12-22T08:29:16;3.90;99.90
5059;DHT22;2548;52.050;11.036;2023-12-22T08:31:45;3.80;99.90
5059;DHT22;2548;52.050;11.036;2023-12-22T08:34:12;3.80;99.90
5059;DHT22;2548;52.050;11.036;2023-12-22T08:36:40;3.80;99.90
5059;DHT22;2548;52.050;11.036;2023-12-22T08:39:07;3.80;99.90
5059;DHT22;2548;52.050;11.036;2023-12-22T08:41:39;3.90;99.90
5059;DHT22;2548;52.050;11.036;2023-12-22T08:44:11;3.90;99.90
5059;DHT22;2548;52.050;11.036;2023-12-22T08:46:46;3.80;99.90
5059;DHT22;2548;52.050;11.036;2023-12-22T08:49:13;3.60;99.90
5059;DHT22;2548;52.050;11.036;2023-12-22T08:51:47;3.40;99.90
5059;DHT22;2548;52.050;11.036;2023-12-22T08:54:14;3.30;99.90
5059;DHT22;2548;52.050;11.036;2023-12-22T08:56:51;3.20;99.90
5059;DHT22;2548;52.050;11.036;2023-12-22T08:59:22;3.10;99.90
5059;DHT22;2548;52.050;11.036;2023-12-22T09:01:50;3.10;99.90
5059;DHT22;2548;52.050;11.036;2023-12-22T09:04:20;3.20;99.90
5059;DHT22;2548;52.050;11.036;2023-12-22T09:06:48;3.30;99.90
5059;DHT22;2548;52.050;11.036;2023-12-22T09:09:16;3.30;99.90
5059;DHT22;2548;52.050;11.036;2023-12-22T09:11:44;3.30;99.90
5059;DHT22;2548;52.050;11.036;2023-12-22T09:14:11;3.30;99.90
5059;DHT22;2548;52.050;11.036;2023-12-22T09:16:40;3.20;99.90
5059;DHT22;2548;52.050;11.036;2023-12-22T09:19:10;3.20;99.90
5059;DHT22;2548;52.050;11.036;2023-12-22T09:21:37;3.20;99.90
5059;DHT22;2548;52.050;11.036;2023-12-22T09:24:05;3.30;99.90
5059;DHT22;2548;52.050;11.036;2023-12-22T09:26:33;3.30;99.90
5059;DHT22;2548;52.050;11.036;2023-12-22T09:29:00;3.40;99.90
5059;DHT22;2548;52.050;11.036;2023-12-22T09:31:27;3.50;99.90
5059;DHT22;2548;52.050;11.036;2023-12-22T09:33:56;3.60;99.90
5059;DHT22;2548;52.050;11.036;2023-12-22T09:36:24;3.60;99.90
5059;DHT22;2548;52.050;11.036;2023-12-22T09:38:51;3.70;99.90
5059;DHT22;2548;52.050;11.036;2023-12-22T09:41:18;3.90;99.90
5059;DHT22;2548;52.050;11.036;2023-12-22T09:43:49;4.00;99.90
5059;DHT22;2548;52.050;11.036;2023-12-22T09:46:20;4.10;99.90
5059;DHT22;2548;52.050;11.036;2023-12-22T09:48:49;4.30;99.90
5059;DHT22;2548;52.050;11.036;2023-12-22T09:51:19;4.40;99.90
5059;DHT22;2548;52.050;11.036;2023-12-22T09:53:47;4.60;99.90
5059;DHT22;2548;52.050;11.036;2023-12-22T09:56:17;4.70;99.90
5059;DHT22;2548;52.050;11.036;2023-12-22T09:58:46;4.90;99.90
5059;DHT22;2548;52.050;11.036;2023-12-22T10:01:14;5.10;99.90
5059;DHT22;2548;52.050;11.036;2023-12-22T10:03:42;5.20;99.90
5059;DHT22;2548;52.050;11.036;2023-12-22T10:06:10;5.30;99.90
5059;DHT22;2548;52.050;11.036;2023-12-22T10:08:39;5.30;99.90
5059;DHT22;2548;52.050;11.036;2023-12-22T10:11:08;5.30;99.90
5059;DHT22;2548;52.050;11.036;2023-12-22T10:13:36;5.30;99.90
5059;DHT22;2548;52.050;11.036;2023-12-22T10:16:06;5.30;99.90
5059;DHT22;2548;52.050;11.036;2023-12-22T10:18:34;5.30;99.90
5059;DHT22;2548;52.050;11.036;2023-12-22T10:21:01;5.20;99.90
5059;DHT22;2548;52.050;11.036;2023-12-22T10:23:29;5.20;99.90
5059;DHT22;2548;52.050;11.036;2023-12-22T10:25:58;5.10;99.90
5059;DHT22;2548;52.050;11.036;2023-12-22T10:28:27;5.00;99.90
5059;DHT22;2548;52.050;11.036;2023-12-22T10:30:56;4.90;99.90
5059;DHT22;2548;52.050;11.036;2023-12-22T10:33:25;4.60;99.90
5059;DHT22;2548;52.050;11.036;2023-12-22T10:35:54;4.30;99.90
5059;DHT22;2548;52.050;11.036;2023-12-22T10:38:21;4.10;99.90
5059;DHT22;2548;52.050;11.036;2023-12-22T10:40:49;4.00;99.90
5059;DHT22;2548;52.050;11.036;2023-12-22T10:43:18;4.00;99.90
5059;DHT22;2548;52.050;11.036;2023-12-22T10:45:46;4.00;99.90
5059;DHT22;2548;52.050;11.036;2023-12-22T10:48:13;4.10;99.90
5059;DHT22;2548;52.050;11.036;2023-12-22T10:50:41;4.40;99.90
5059;DHT22;2548;52.050;11.036;2023-12-22T10:53:10;4.70;99.90
5059;DHT22;2548;52.050;11.036;2023-12-22T10:55:38;4.90;99.90
5059;DHT22;2548;52.050;11.036;2023-12-22T10:58:06;5.10;99.90
5059;DHT22;2548;52.050;11.036;2023-12-22T11:00:37;5.20;99.90
5059;DHT22;2548;52.050;11.036;2023-12-22T11:03:09;5.30;99.90
5059;DHT22;2548;52.050;11.036;2023-12-22T11:05:42;5.30;99.90
5059;DHT22;2548;52.050;11.036;2023-12-22T11:08:11;5.40;99.90
5059;DHT22;2548;52.050;11.036;2023-12-22T11:10:41;5.40;99.90
5059;DHT22;2548;52.050;11.036;2023-12-22T11:13:09;5.50;99.90
5059;DHT22;2548;52.050;11.036;2023-12-22T11:15:39;5.40;99.90
5059;DHT22;2548;52.050;11.036;2023-12-22T11:18:08;5.20;99.90
5059;DHT22;2548;52.050;11.036;2023-12-22T11:20:37;5.00;99.90
5059;DHT22;2548;52.050;11.036;2023-12-22T11:23:05;4.80;99.90
5059;DHT22;2548;52.050;11.036;2023-12-22T11:25:35;4.60;99.90
5059;DHT22;2548;52.050;11.036;2023-12-22T11:28:04;4.40;99.90
5059;DHT22;2548;52.050;11.036;2023-12-22T11:30:34;4.30;99.90
5059;DHT22;2548;52.050;11.036;2023-12-22T11:33:05;4.10;99.90
5059;DHT22;2548;52.050;11.036;2023-12-22T11:35:33;4.00;99.90
5059;DHT22;2548;52.050;11.036;2023-12-22T11:38:01;4.00;99.90
5059;DHT22;2548;52.050;11.036;2023-12-22T11:40:29;3.90;99.90
5059;DHT22;2548;52.050;11.036;2023-12-22T11:42:57;3.80;99.90
5059;DHT22;2548;52.050;11.036;2023-12-22T11:45:26;3.80;99.90
5059;DHT22;2548;52.050;11.036;2023-12-22T11:48:07;3.80;99.90
5059;DHT22;2548;52.050;11.036;2023-12-22T11:50:35;3.80;99.90
5059;DHT22;2548;52.050;11.036;2023-12-22T11:53:19;3.80;99.90
5059;DHT22;2548;52.050;11.036;2023-12-22T11:56:00;3.70;99.90
5059;DHT22;2548;52.050;11.036;2023-12-22T11:58:36;3.70;99.90
5059;DHT22;2548;52.050;11.036;2023-12-22T12:01:06;3.70;99.90
5059;DHT22;2548;52.050;11.036;2023-12-22T12:03:38;3.70;99.90
5059;DHT22;2548;52.050;11.036;2023-12-22T12:06:17;3.80;99.90
5059;DHT22;2548;52.050;11.036;2023-12-22T12:08:48;3.80;99.90
5059;DHT22;2548;52.050;11.036;2023-12-22T12:11:17;3.80;99.90
5059;DHT22;2548;52.050;11.036;2023-12-22T12:13:46;3.70;99.90
5059;DHT22;2548;52.050;11.036;2023-12-22T12:16:14;3.80;99.90
5059;DHT22;2548;52.050;11.036;2023-12-22T12:18:45;3.80;99.90
5059;DHT22;2548;52.050;11.036;2023-12-22T12:21:12;3.80;99.90
5059;DHT22;2548;52.050;11.036;2023-12-22T12:23:41;3.80;99.90
5059;DHT22;2548;52.050;11.036;2023-12-22T12:26:11;3.80;99.90
5059;DHT22;2548;52.050;11.036;2023-12-22T12:28:44;3.80;99.90
5059;DHT22;2548;52.050;11.036;2023-12-22T12:31:12;3.80;99.90
5059;DHT22;2548;52.050;11.036;2023-12-22T12:33:40;3.90;99.90
5059;DHT22;2548;52.050;11.036;2023-12-22T12:36:10;3.90;99.90
5059;DHT22;2548;52.050;11.036;2023-12-22T12:38:45;4.00;99.90
5059;DHT22;2548;52.050;11.036;2023-12-22T12:41:15;4.10;99.90
5059;DHT22;2548;52.050;11.036;2023-12-22T12:43:43;4.10;99.90
5059;DHT22;2548;52.050;11.036;2023-12-22T12:46:12;4.10;99.90
5059;DHT22;2548;52.050;11.036;2023-12-22T12:48:39;4.10;99.90
5059;DHT22;2548;52.050;11.036;2023-12-22T12:51:08;4.10;99.90
5059;DHT22;2548;52.050;11.036;2023-12-22T12:53:36;4.10;99.90
5059;DHT22;2548;52.050;11.036;2023-12-22T12:56:04;4.10;99.90
5059;DHT22;2548;52.050;11.036;2023-12-22T12:58:32;4.00;99.90
5059;DHT22;2548;52.050;11.036;2023-12-22T13:01:05;4.00;99.90
5059;DHT22;2548;52.050;11.036;2023-12-22T13:03:32;4.10;99.90
5059;DHT22;2548;52.050;11.036;2023-12-22T13:06:08;4.10;99.90
5059;DHT22;2548;52.050;11.036;2023-12-22T13:08:36;4.10;99.90
5059;DHT22;2548;52.050;11.036;2023-12-22T13:11:06;4.10;99.90
5059;DHT22;2548;52.050;11.036;2023-12-22T13:13:41;4.10;99.90
5059;DHT22;2548;52.050;11.036;2023-12-22T13:16:09;4.20;99.90
5059;DHT22;2548;52.050;11.036;2023-12-22T13:18:36;4.20;99.90
5059;DHT22;2548;52.050;11.036;2023-12-22T13:21:04;4.20;99.90
5059;DHT22;2548;52.050;11.036;2023-12-22T13:23:33;4.20;99.90
5059;DHT22;2548;52.050;11.036;2023-12-22T13:26:01;4.20;99.90
5059;DHT22;2548;52.050;11.036;2023-12-22T13:28:29;4.30;99.90
5059;DHT22;2548;52.050;11.036;2023-12-22T13:30:56;4.30;99.90
5059;DHT22;2548;52.050;11.036;2023-12-22T13:33:24;4.30;99.90
5059;DHT22;2548;52.050;11.036;2023-12-22T13:35:56;4.30;99.90
5059;DHT22;2548;52.050;11.036;2023-12-22T13:38:24;4.30;99.90
5059;DHT22;2548;52.050;11.036;2023-12-22T13:40:53;4.30;99.90
5059;DHT22;2548;52.050;11.036;2023-12-22T13:43:20;4.40;99.90
5059;DHT22;2548;52.050;11.036;2023-12-22T13:45:50;4.40;99.90
5059;DHT22;2548;52.050;11.036;2023-12-22T13:48:18;4.30;99.90
5059;DHT22;2548;52.050;11.036;2023-12-22T13:50:56;4.40;99.90
5059;DHT22;2548;52.050;11.036;2023-12-22T13:53:23;4.40;99.90
5059;DHT22;2548;52.050;11.036;2023-12-22T13:55:55;4.40;99.90
5059;DHT22;2548;52.050;11.036;2023-12-22T13:58:23;4.40;99.90
5059;DHT22;2548;52.050;11.036;2023-12-22T14:00:51;4.40;99.90
5059;DHT22;2548;52.050;11.036;2023-12-22T14:03:19;4.40;99.90
5059;DHT22;2548;52.050;11.036;2023-12-22T14:05:47;4.50;99.90
5059;DHT22;2548;52.050;11.036;2023-12-22T14:08:15;4.50;99.90
5059;DHT22;2548;52.050;11.036;2023-12-22T14:10:46;4.50;99.90
5059;DHT22;2548;52.050;11.036;2023-12-22T14:13:16;4.50;99.90
5059;DHT22;2548;52.050;11.036;2023-12-22T14:15:43;4.50;99.90
5059;DHT22;2548;52.050;11.036;2023-12-22T14:18:11;4.60;99.90
5059;DHT22;2548;52.050;11.036;2023-12-22T14:20:39;4.60;99.90
5059;DHT22;2548;52.050;11.036;2023-12-22T14:23:06;4.70;99.90
5059;DHT22;2548;52.050;11.036;2023-12-22T14:25:34;4.70;99.90
5059;DHT22;2548;52.050;11.036;2023-12-22T14:28:01;4.70;99.90
5059;DHT22;2548;52.050;11.036;2023-12-22T14:30:30;4.70;99.90
5059;DHT22;2548;52.050;11.036;2023-12-22T14:32:58;4.70;99.90
5059;DHT22;2548;52.050;11.036;2023-12-22T14:35:25;4.80;99.90
5059;DHT22;2548;52.050;11.036;2023-12-22T14:37:52;4.90;99.90
5059;DHT22;2548;52.050;11.036;2023-12-22T14:40:20;4.90;99.90
5059;DHT22;2548;52.050;11.036;2023-12-22T14:42:47;5.00;99.90
5059;DHT22;2548;52.050;11.036;2023-12-22T14:45:15;5.10;99.90
5059;DHT22;2548;52.050;11.036;2023-12-22T14:47:43;5.10;99.90
5059;DHT22;2548;52.050;11.036;2023-12-22T14:50:11;5.10;99.90
5059;DHT22;2548;52.050;11.036;2023-12-22T14:52:38;5.10;99.90
5059;DHT22;2548;52.050;11.036;2023-12-22T14:55:06;5.00;99.90
5059;DHT22;2548;52.050;11.036;2023-12-22T14:57:34;5.00;99.90
5059;DHT22;2548;52.050;11.036;2023-12-22T15:00:01;5.00;99.90
5059;DHT22;2548;52.050;11.036;2023-12-22T15:02:29;5.00;99.90
5059;DHT22;2548;52.050;11.036;2023-12-22T15:04:58;5.00;99.90
5059;DHT22;2548;52.050;11.036;2023-12-22T15:07:25;5.00;99.90
5059;DHT22;2548;52.050;11.036;2023-12-22T15:09:53;5.00;99.90
5059;DHT22;2548;52.050;11.036;2023-12-22T15:12:20;5.10;99.90
5059;DHT22;2548;52.050;11.036;2023-12-22T15:14:47;5.20;99.90
5059;DHT22;2548;52.050;11.036;2023-12-22T15:17:15;5.10;99.90
5059;DHT22;2548;52.050;11.036;2023-12-22T15:19:44;5.00;99.90
5059;DHT22;2548;52.050;11.036;2023-12-22T15:22:12;4.90;99.90
5059;DHT22;2548;52.050;11.036;2023-12-22T15:24:40;4.70;99.90
5059;DHT22;2548;52.050;11.036;2023-12-22T15:27:09;4.70;99.90
5059;DHT22;2548;52.050;11.036;2023-12-22T15:29:37;4.60;99.90
5059;DHT22;2548;52.050;11.036;2023-12-22T15:32:05;4.70;99.90
5059;DHT22;2548;52.050;11.036;2023-12-22T15:34:32;4.70;99.90
5059;DHT22;2548;52.050;11.036;2023-12-22T15:37:00;4.70;99.90
5059;DHT22;2548;52.050;11.036;2023-12-22T15:39:28;4.70;99.90
5059;DHT22;2548;52.050;11.036;2023-12-22T15:41:57;4.70;99.90
5059;DHT22;2548;52.050;11.036;2023-12-22T15:44:24;4.70;99.90
5059;DHT22;2548;52.050;11.036;2023-12-22T15:46:53;4.70;99.90
5059;DHT22;2548;52.050;11.036;2023-12-22T15:49:20;4.70;99.90
5059;DHT22;2548;52.050;11.036;2023-12-22T15:51:48;4.70;99.90
5059;DHT22;2548;52.050;11.036;2023-12-22T15:54:19;4.80;99.90
5059;DHT22;2548;52.050;11.036;2023-12-22T15:56:48;4.80;99.90
5059;DHT22;2548;52.050;11.036;2023-12-22T15:59:15;4.90;99.90
5059;DHT22;2548;52.050;11.036;2023-12-22T16:01:43;5.00;99.90
5059;DHT22;2548;52.050;11.036;2023-12-22T16:04:11;5.00;99.90
5059;DHT22;2548;52.050;11.036;2023-12-22T16:06:38;5.00;99.90
5059;DHT22;2548;52.050;11.036;2023-12-22T16:09:06;4.80;99.90
5059;DHT22;2548;52.050;11.036;2023-12-22T16:11:33;4.30;99.90
5059;DHT22;2548;52.050;11.036;2023-12-22T16:14:02;3.80;99.90
5059;DHT22;2548;52.050;11.036;2023-12-22T16:16:29;3.50;99.90
5059;DHT22;2548;52.050;11.036;2023-12-22T16:18:57;3.50;99.90
5059;DHT22;2548;52.050;11.036;2023-12-22T16:21:24;3.50;99.90